sensor_id;sensor_type;location;lat;lon;timestamp;temperature;humidity
48946;DHT22;34999;50.940;3.998;2022-09-01T00:01:05;18.40;99.90
48946;DHT22;34999;50.940;3.998;2022-09-01T00:03:42;18.40;99.90
48946;DHT22;34999;50.940;3.998;2022-09-01T00:06:13;18.40;99.90
48946;DHT22;34999;50.940;3.998;2022-09-01T00:08:41;18.40;99.90
48946;DHT22;34999;50.940;3.998;2022-09-01T00:11:09;18.30;99.90
48946;DHT22;34999;50.940;3.998;2022-09-01T00:13:38;18.30;99.90
48946;DHT22;34999;50.940;3.998;2022-09-01T00:16:06;18.20;99.90
48946;DHT22;34999;50.940;3.998;2022-09-01T00:18:35;18.20;99.90
48946;DHT22;34999;50.940;3.998;2022-09-01T00:21:05;18.10;99.90
48946;DHT22;34999;50.940;3.998;2022-09-01T00:23:34;18.10;99.90
48946;DHT22;34999;50.940;3.998;2022-09-01T00:26:04;18.00;99.90
48946;DHT22;34999;50.940;3.998;2022-09-01T00:28:33;18.00;99.90
48946;DHT22;34999;50.940;3.998;2022-09-01T00:31:02;18.00;99.90
48946;DHT22;34999;50.940;3.998;2022-09-01T00:33:31;17.90;99.90
48946;DHT22;34999;50.940;3.998;2022-09-01T00:35:59;17.90;99.90
48946;DHT22;34999;50.940;3.998;2022-09-01T00:38:29;17.90;99.90
48946;DHT22;34999;50.940;3.998;2022-09-01T00:40:58;17.90;99.90
48946;DHT22;34999;50.940;3.998;2022-09-01T00:43:37;17.80;99.90
48946;DHT22;34999;50.940;3.998;2022-09-01T00:46:09;17.80;99.90
48946;DHT22;34999;50.940;3.998;2022-09-01T00:48:42;17.80;99.90
48946;DHT22;34999;50.940;3.998;2022-09-01T00:51:12;17.80;99.90
48946;DHT22;34999;50.940;3.998;2022-09-01T00:53:42;17.90;99.90
48946;DHT22;34999;50.940;3.998;2022-09-01T00:56:12;17.90;99.90
48946;DHT22;34999;50.940;3.998;2022-09-01T00:58:41;17.90;99.90
48946;DHT22;34999;50.940;3.998;2022-09-01T01:05:50;17.90;99.90
48946;DHT22;34999;50.940;3.998;2022-09-01T01:08:22;17.90;99.90
48946;DHT22;34999;50.940;3.998;2022-09-01T01:10:59;17.90;99.90
48946;DHT22;34999;50.940;3.998;2022-09-01T01:13:31;17.90;99.90
48946;DHT22;34999;50.940;3.998;2022-09-01T01:16:02;17.90;99.90
48946;DHT22;34999;50.940;3.998;2022-09-01T01:18:41;17.80;99.90
48946;DHT22;34999;50.940;3.998;2022-09-01T01:21:14;17.80;99.90
48946;DHT22;34999;50.940;3.998;2022-09-01T01:24:08;17.80;99.90
48946;DHT22;34999;50.940;3.998;2022-09-01T01:26:39;17.80;99.90
48946;DHT22;34999;50.940;3.998;2022-09-01T01:29:08;17.70;99.90
48946;DHT22;34999;50.940;3.998;2022-09-01T01:31:37;17.70;99.90
48946;DHT22;34999;50.940;3.998;2022-09-01T01:34:05;17.70;99.90
48946;DHT22;34999;50.940;3.998;2022-09-01T01:36:37;17.60;99.90
48946;DHT22;34999;50.940;3.998;2022-09-01T01:39:10;17.60;99.90
48946;DHT22;34999;50.940;3.998;2022-09-01T01:41:42;17.50;99.90
48946;DHT22;34999;50.940;3.998;2022-09-01T01:44:17;17.40;99.90
48946;DHT22;34999;50.940;3.998;2022-09-01T01:46:48;17.40;99.90
48946;DHT22;34999;50.940;3.998;2022-09-01T01:49:19;17.30;99.90
48946;DHT22;34999;50.940;3.998;2022-09-01T01:51:50;17.30;99.90
48946;DHT22;34999;50.940;3.998;2022-09-01T01:54:23;17.20;99.90
48946;DHT22;34999;50.940;3.998;2022-09-01T01:56:55;17.20;99.90
48946;DHT22;34999;50.940;3.998;2022-09-01T01:59:25;17.20;99.90
48946;DHT22;34999;50.940;3.998;2022-09-01T02:06:39;17.10;99.90
48946;DHT22;34999;50.940;3.998;2022-09-01T02:09:13;17.10;99.90
48946;DHT22;34999;50.940;3.998;2022-09-01T02:11:42;17.10;99.90
48946;DHT22;34999;50.940;3.998;2022-09-01T02:14:12;17.10;99.90
48946;DHT22;34999;50.940;3.998;2022-09-01T02:16:41;17.10;99.90
48946;DHT22;34999;50.940;3.998;2022-09-01T02:19:10;17.10;99.90
48946;DHT22;34999;50.940;3.998;2022-09-01T02:21:40;17.10;99.90
48946;DHT22;34999;50.940;3.998;2022-09-01T02:24:12;17.10;99.90
48946;DHT22;34999;50.940;3.998;2022-09-01T02:26:43;17.10;99.90
48946;DHT22;34999;50.940;3.998;2022-09-01T02:29:18;17.10;99.90
48946;DHT22;34999;50.940;3.998;2022-09-01T02:31:50;17.10;99.90
48946;DHT22;34999;50.940;3.998;2022-09-01T02:34:21;17.20;99.90
48946;DHT22;34999;50.940;3.998;2022-09-01T02:36:52;17.20;99.90
48946;DHT22;34999;50.940;3.998;2022-09-01T02:39:23;17.20;99.90
48946;DHT22;34999;50.940;3.998;2022-09-01T02:41:52;17.20;99.90
48946;DHT22;34999;50.940;3.998;2022-09-01T02:44:22;17.20;99.90
48946;DHT22;34999;50.940;3.998;2022-09-01T02:46:50;17.30;99.90
48946;DHT22;34999;50.940;3.998;2022-09-01T02:49:21;17.30;99.90
48946;DHT22;34999;50.940;3.998;2022-09-01T02:51:55;17.30;99.90
48946;DHT22;34999;50.940;3.998;2022-09-01T02:54:28;17.30;99.90
48946;DHT22;34999;50.940;3.998;2022-09-01T02:56:58;17.30;99.90
48946;DHT22;34999;50.940;3.998;2022-09-01T02:59:29;17.30;99.90
48946;DHT22;34999;50.940;3.998;2022-09-01T03:01:58;17.30;99.90
48946;DHT22;34999;50.940;3.998;2022-09-01T03:04:26;17.30;99.90
48946;DHT22;34999;50.940;3.998;2022-09-01T03:06:56;17.40;99.90
48946;DHT22;34999;50.940;3.998;2022-09-01T03:09:25;17.40;99.90
48946;DHT22;34999;50.940;3.998;2022-09-01T03:11:54;17.40;99.90
48946;DHT22;34999;50.940;3.998;2022-09-01T03:14:22;17.40;99.90
48946;DHT22;34999;50.940;3.998;2022-09-01T03:16:53;17.30;99.90
48946;DHT22;34999;50.940;3.998;2022-09-01T03:19:21;17.30;99.90
48946;DHT22;34999;50.940;3.998;2022-09-01T03:21:49;17.30;99.90
48946;DHT22;34999;50.940;3.998;2022-09-01T03:24:18;17.30;99.90
48946;DHT22;34999;50.940;3.998;2022-09-01T03:26:50;17.30;99.90
48946;DHT22;34999;50.940;3.998;2022-09-01T03:29:18;17.30;99.90
48946;DHT22;34999;50.940;3.998;2022-09-01T03:31:47;17.20;99.90
48946;DHT22;34999;50.940;3.998;2022-09-01T03:34:17;17.20;99.90
48946;DHT22;34999;50.940;3.998;2022-09-01T03:36:49;17.20;99.90
48946;DHT22;34999;50.940;3.998;2022-09-01T03:39:18;17.20;99.90
48946;DHT22;34999;50.940;3.998;2022-09-01T03:41:47;17.10;99.90
48946;DHT22;34999;50.940;3.998;2022-09-01T03:44:15;17.10;99.90
48946;DHT22;34999;50.940;3.998;2022-09-01T03:46:44;17.00;99.90
48946;DHT22;34999;50.940;3.998;2022-09-01T03:49:12;16.90;99.90
48946;DHT22;34999;50.940;3.998;2022-09-01T03:51:43;16.90;99.90
48946;DHT22;34999;50.940;3.998;2022-09-01T03:54:12;16.80;99.90
48946;DHT22;34999;50.940;3.998;2022-09-01T03:56:41;16.70;99.90
48946;DHT22;34999;50.940;3.998;2022-09-01T03:59:09;16.70;99.90
48946;DHT22;34999;50.940;3.998;2022-09-01T04:01:43;16.60;99.90
48946;DHT22;34999;50.940;3.998;2022-09-01T04:04:50;16.50;99.90
48946;DHT22;34999;50.940;3.998;2022-09-01T04:07:20;16.40;99.90
48946;DHT22;34999;50.940;3.998;2022-09-01T04:09:49;16.40;99.90
48946;DHT22;34999;50.940;3.998;2022-09-01T04:12:18;16.40;99.90
48946;DHT22;34999;50.940;3.998;2022-09-01T04:14:49;16.30;99.90
48946;DHT22;34999;50.940;3.998;2022-09-01T04:17:18;16.20;99.90
48946;DHT22;34999;50.940;3.998;2022-09-01T04:20:04;16.20;99.90
48946;DHT22;34999;50.940;3.998;2022-09-01T04:22:36;16.10;99.90
48946;DHT22;34999;50.940;3.998;2022-09-01T04:25:05;16.10;99.90
48946;DHT22;34999;50.940;3.998;2022-09-01T04:27:34;16.10;99.90
48946;DHT22;34999;50.940;3.998;2022-09-01T04:30:09;16.00;99.90
48946;DHT22;34999;50.940;3.998;2022-09-01T04:32:37;15.90;99.90
48946;DHT22;34999;50.940;3.998;2022-09-01T04:35:07;15.90;99.90
48946;DHT22;34999;50.940;3.998;2022-09-01T04:37:39;15.90;99.90
48946;DHT22;34999;50.940;3.998;2022-09-01T04:40:08;15.90;99.90
48946;DHT22;34999;50.940;3.998;2022-09-01T04:42:36;15.80;99.90
48946;DHT22;34999;50.940;3.998;2022-09-01T04:45:07;15.80;99.90
48946;DHT22;34999;50.940;3.998;2022-09-01T04:47:37;15.70;99.90
48946;DHT22;34999;50.940;3.998;2022-09-01T04:50:09;15.70;99.90
48946;DHT22;34999;50.940;3.998;2022-09-01T04:52:42;15.60;99.90
48946;DHT22;34999;50.940;3.998;2022-09-01T04:55:12;15.50;99.90
48946;DHT22;34999;50.940;3.998;2022-09-01T04:57:45;15.40;99.90
48946;DHT22;34999;50.940;3.998;2022-09-01T05:00:18;15.30;99.90
48946;DHT22;34999;50.940;3.998;2022-09-01T05:02:50;15.30;99.90
48946;DHT22;34999;50.940;3.998;2022-09-01T05:05:20;15.20;99.90
48946;DHT22;34999;50.940;3.998;2022-09-01T05:07:50;15.10;99.90
48946;DHT22;34999;50.940;3.998;2022-09-01T05:10:20;15.10;99.90
48946;DHT22;34999;50.940;3.998;2022-09-01T05:12:55;15.10;99.90
48946;DHT22;34999;50.940;3.998;2022-09-01T05:15:24;15.00;99.90
48946;DHT22;34999;50.940;3.998;2022-09-01T05:17:52;15.00;99.90
48946;DHT22;34999;50.940;3.998;2022-09-01T05:20:21;14.90;99.90
48946;DHT22;34999;50.940;3.998;2022-09-01T05:22:52;14.90;99.90
48946;DHT22;34999;50.940;3.998;2022-09-01T05:25:23;14.90;99.90
48946;DHT22;34999;50.940;3.998;2022-09-01T05:27:53;14.90;99.90
48946;DHT22;34999;50.940;3.998;2022-09-01T05:30:22;14.90;99.90
48946;DHT22;34999;50.940;3.998;2022-09-01T05:32:54;14.90;99.90
48946;DHT22;34999;50.940;3.998;2022-09-01T05:35:23;14.90;99.90
48946;DHT22;34999;50.940;3.998;2022-09-01T05:38:00;14.90;99.90
48946;DHT22;34999;50.940;3.998;2022-09-01T05:40:29;14.90;99.90
48946;DHT22;34999;50.940;3.998;2022-09-01T05:42:58;15.00;99.90
48946;DHT22;34999;50.940;3.998;2022-09-01T05:45:26;15.10;99.90
48946;DHT22;34999;50.940;3.998;2022-09-01T05:48:15;15.20;99.90
48946;DHT22;34999;50.940;3.998;2022-09-01T05:50:50;15.30;99.90
48946;DHT22;34999;50.940;3.998;2022-09-01T05:53:23;15.40;99.90
48946;DHT22;34999;50.940;3.998;2022-09-01T05:55:53;15.50;99.90
48946;DHT22;34999;50.940;3.998;2022-09-01T05:58:24;15.60;99.90
48946;DHT22;34999;50.940;3.998;2022-09-01T06:01:16;15.70;99.90
48946;DHT22;34999;50.940;3.998;2022-09-01T06:03:49;15.80;99.90
48946;DHT22;34999;50.940;3.998;2022-09-01T06:06:19;15.90;99.90
48946;DHT22;34999;50.940;3.998;2022-09-01T06:08:51;15.90;99.90
48946;DHT22;34999;50.940;3.998;2022-09-01T06:11:25;16.00;99.90
48946;DHT22;34999;50.940;3.998;2022-09-01T06:13:59;16.00;99.90
48946;DHT22;34999;50.940;3.998;2022-09-01T06:16:29;16.10;99.90
48946;DHT22;34999;50.940;3.998;2022-09-01T06:18:57;16.20;99.90
48946;DHT22;34999;50.940;3.998;2022-09-01T06:21:26;16.30;99.90
48946;DHT22;34999;50.940;3.998;2022-09-01T06:23:57;16.50;99.90
48946;DHT22;34999;50.940;3.998;2022-09-01T06:26:27;16.60;99.90
48946;DHT22;34999;50.940;3.998;2022-09-01T06:28:58;16.70;99.90
48946;DHT22;34999;50.940;3.998;2022-09-01T06:31:29;16.80;99.90
48946;DHT22;34999;50.940;3.998;2022-09-01T06:34:01;16.90;99.90
48946;DHT22;34999;50.940;3.998;2022-09-01T06:36:30;17.00;99.90
48946;DHT22;34999;50.940;3.998;2022-09-01T06:39:03;17.20;99.90
48946;DHT22;34999;50.940;3.998;2022-09-01T06:41:31;17.30;99.90
48946;DHT22;34999;50.940;3.998;2022-09-01T06:44:02;17.30;99.90
48946;DHT22;34999;50.940;3.998;2022-09-01T06:46:31;17.40;99.90
48946;DHT22;34999;50.940;3.998;2022-09-01T06:49:00;17.50;99.90
48946;DHT22;34999;50.940;3.998;2022-09-01T06:51:29;17.50;99.90
48946;DHT22;34999;50.940;3.998;2022-09-01T06:53:59;17.60;99.90
48946;DHT22;34999;50.940;3.998;2022-09-01T06:56:31;17.80;99.90
48946;DHT22;34999;50.940;3.998;2022-09-01T06:59:10;17.90;99.90
48946;DHT22;34999;50.940;3.998;2022-09-01T07:01:39;18.00;99.90
48946;DHT22;34999;50.940;3.998;2022-09-01T07:04:07;18.20;99.90
48946;DHT22;34999;50.940;3.998;2022-09-01T07:06:40;18.30;99.90
48946;DHT22;34999;50.940;3.998;2022-09-01T07:13:42;18.40;99.90
48946;DHT22;34999;50.940;3.998;2022-09-01T07:16:33;18.60;99.90
48946;DHT22;34999;50.940;3.998;2022-09-01T07:19:19;18.70;99.90
48946;DHT22;34999;50.940;3.998;2022-09-01T07:21:47;18.80;99.90
48946;DHT22;34999;50.940;3.998;2022-09-01T07:24:35;19.00;99.90
48946;DHT22;34999;50.940;3.998;2022-09-01T07:27:06;19.20;99.90
48946;DHT22;34999;50.940;3.998;2022-09-01T07:29:56;19.30;99.90
48946;DHT22;34999;50.940;3.998;2022-09-01T07:32:24;19.40;99.90
48946;DHT22;34999;50.940;3.998;2022-09-01T07:35:16;19.60;99.90
48946;DHT22;34999;50.940;3.998;2022-09-01T07:37:45;19.70;99.90
48946;DHT22;34999;50.940;3.998;2022-09-01T07:40:35;19.80;99.90
48946;DHT22;34999;50.940;3.998;2022-09-01T07:43:25;19.90;99.90
48946;DHT22;34999;50.940;3.998;2022-09-01T07:46:03;20.00;99.90
48946;DHT22;34999;50.940;3.998;2022-09-01T07:48:55;20.20;99.90
48946;DHT22;34999;50.940;3.998;2022-09-01T07:51:44;20.30;99.90
48946;DHT22;34999;50.940;3.998;2022-09-01T07:54:17;20.40;99.90
48946;DHT22;34999;50.940;3.998;2022-09-01T07:56:45;20.50;99.90
48946;DHT22;34999;50.940;3.998;2022-09-01T07:59:13;20.60;99.90
48946;DHT22;34999;50.940;3.998;2022-09-01T08:01:43;20.70;99.90
48946;DHT22;34999;50.940;3.998;2022-09-01T08:04:13;20.80;99.90
48946;DHT22;34999;50.940;3.998;2022-09-01T08:06:42;20.90;99.90
48946;DHT22;34999;50.940;3.998;2022-09-01T08:09:10;21.20;99.90
48946;DHT22;34999;50.940;3.998;2022-09-01T08:11:59;21.30;99.90
48946;DHT22;34999;50.940;3.998;2022-09-01T08:14:29;21.60;99.90
48946;DHT22;34999;50.940;3.998;2022-09-01T08:17:02;21.90;99.90
48946;DHT22;34999;50.940;3.998;2022-09-01T08:19:51;22.20;99.90
48946;DHT22;34999;50.940;3.998;2022-09-01T08:22:20;22.20;99.90
48946;DHT22;34999;50.940;3.998;2022-09-01T08:24:51;22.10;99.90
48946;DHT22;34999;50.940;3.998;2022-09-01T08:27:21;22.20;99.90
48946;DHT22;34999;50.940;3.998;2022-09-01T08:29:49;22.30;99.90
48946;DHT22;34999;50.940;3.998;2022-09-01T08:32:19;22.40;99.90
48946;DHT22;34999;50.940;3.998;2022-09-01T08:34:48;22.40;99.90
48946;DHT22;34999;50.940;3.998;2022-09-01T08:37:17;22.50;99.90
48946;DHT22;34999;50.940;3.998;2022-09-01T08:39:45;22.60;99.90
48946;DHT22;34999;50.940;3.998;2022-09-01T08:42:24;22.60;99.90
48946;DHT22;34999;50.940;3.998;2022-09-01T08:45:03;22.80;99.90
48946;DHT22;34999;50.940;3.998;2022-09-01T08:47:35;22.90;99.90
48946;DHT22;34999;50.940;3.998;2022-09-01T08:50:24;23.10;99.90
48946;DHT22;34999;50.940;3.998;2022-09-01T08:52:57;23.50;99.90
48946;DHT22;34999;50.940;3.998;2022-09-01T08:55:40;23.50;99.90
48946;DHT22;34999;50.940;3.998;2022-09-01T08:58:12;23.60;99.90
48946;DHT22;34999;50.940;3.998;2022-09-01T09:00:45;23.70;99.90
48946;DHT22;34999;50.940;3.998;2022-09-01T09:03:29;24.00;99.90
48946;DHT22;34999;50.940;3.998;2022-09-01T09:06:18;24.40;99.90
48946;DHT22;34999;50.940;3.998;2022-09-01T09:08:54;24.40;99.90
48946;DHT22;34999;50.940;3.998;2022-09-01T09:14:32;24.50;99.90
48946;DHT22;34999;50.940;3.998;2022-09-01T09:17:04;24.50;99.90
48946;DHT22;34999;50.940;3.998;2022-09-01T09:19:36;24.60;99.90
48946;DHT22;34999;50.940;3.998;2022-09-01T09:22:08;24.60;99.90
48946;DHT22;34999;50.940;3.998;2022-09-01T09:24:44;24.70;99.90
48946;DHT22;34999;50.940;3.998;2022-09-01T09:27:18;24.90;99.90
48946;DHT22;34999;50.940;3.998;2022-09-01T09:29:48;25.20;99.90
48946;DHT22;34999;50.940;3.998;2022-09-01T09:32:19;25.30;99.90
48946;DHT22;34999;50.940;3.998;2022-09-01T09:34:55;25.50;99.90
48946;DHT22;34999;50.940;3.998;2022-09-01T09:37:27;25.50;99.90
48946;DHT22;34999;50.940;3.998;2022-09-01T09:40:06;25.60;99.90
48946;DHT22;34999;50.940;3.998;2022-09-01T09:42:36;25.60;99.90
48946;DHT22;34999;50.940;3.998;2022-09-01T09:45:19;25.70;99.90
48946;DHT22;34999;50.940;3.998;2022-09-01T09:47:49;26.00;99.90
48946;DHT22;34999;50.940;3.998;2022-09-01T09:50:23;26.00;99.90
48946;DHT22;34999;50.940;3.998;2022-09-01T09:53:04;26.00;99.90
48946;DHT22;34999;50.940;3.998;2022-09-01T09:55:51;25.90;99.90
48946;DHT22;34999;50.940;3.998;2022-09-01T09:58:24;26.00;99.90
48946;DHT22;34999;50.940;3.998;2022-09-01T10:01:03;26.10;99.90
48946;DHT22;34999;50.940;3.998;2022-09-01T10:04:14;26.30;99.90
48946;DHT22;34999;50.940;3.998;2022-09-01T10:07:37;26.40;99.90
48946;DHT22;34999;50.940;3.998;2022-09-01T10:10:37;26.60;99.90
48946;DHT22;34999;50.940;3.998;2022-09-01T10:13:09;26.50;99.90
48946;DHT22;34999;50.940;3.998;2022-09-01T10:15:39;26.60;99.90
48946;DHT22;34999;50.940;3.998;2022-09-01T10:18:11;26.60;99.90
48946;DHT22;34999;50.940;3.998;2022-09-01T10:20:57;26.80;99.90
48946;DHT22;34999;50.940;3.998;2022-09-01T10:23:30;27.00;99.90
48946;DHT22;34999;50.940;3.998;2022-09-01T10:26:04;27.40;99.90
48946;DHT22;34999;50.940;3.998;2022-09-01T10:28:39;27.60;99.90
48946;DHT22;34999;50.940;3.998;2022-09-01T10:31:16;27.80;99.90
48946;DHT22;34999;50.940;3.998;2022-09-01T10:33:45;28.10;99.90
48946;DHT22;34999;50.940;3.998;2022-09-01T10:36:15;28.60;99.90
48946;DHT22;34999;50.940;3.998;2022-09-01T10:38:45;28.60;99.90
48946;DHT22;34999;50.940;3.998;2022-09-01T10:41:42;28.70;99.90
48946;DHT22;34999;50.940;3.998;2022-09-01T10:44:16;28.70;99.90
48946;DHT22;34999;50.940;3.998;2022-09-01T10:46:47;28.70;99.90
48946;DHT22;34999;50.940;3.998;2022-09-01T10:55:42;28.90;99.90
48946;DHT22;34999;50.940;3.998;2022-09-01T11:05:16;29.20;99.90
48946;DHT22;34999;50.940;3.998;2022-09-01T11:07:44;29.00;99.90
48946;DHT22;34999;50.940;3.998;2022-09-01T11:10:42;29.30;99.90
48946;DHT22;34999;50.940;3.998;2022-09-01T11:13:33;29.30;99.90
48946;DHT22;34999;50.940;3.998;2022-09-01T11:16:26;29.30;99.90
48946;DHT22;34999;50.940;3.998;2022-09-01T11:19:35;29.60;99.90
48946;DHT22;34999;50.940;3.998;2022-09-01T11:31:39;29.90;99.90
48946;DHT22;34999;50.940;3.998;2022-09-01T11:34:14;29.70;99.90
48946;DHT22;34999;50.940;3.998;2022-09-01T11:36:52;29.80;99.90
48946;DHT22;34999;50.940;3.998;2022-09-01T11:42:17;29.60;99.90
48946;DHT22;34999;50.940;3.998;2022-09-01T11:44:50;29.50;99.90
48946;DHT22;34999;50.940;3.998;2022-09-01T11:47:24;29.70;99.90
48946;DHT22;34999;50.940;3.998;2022-09-01T11:49:56;29.80;99.90
48946;DHT22;34999;50.940;3.998;2022-09-01T11:52:28;29.80;99.90
48946;DHT22;34999;50.940;3.998;2022-09-01T11:54:58;29.20;99.90
48946;DHT22;34999;50.940;3.998;2022-09-01T11:57:29;28.80;99.90
48946;DHT22;34999;50.940;3.998;2022-09-01T11:59:59;28.70;99.90
48946;DHT22;34999;50.940;3.998;2022-09-01T12:02:32;28.40;99.90
48946;DHT22;34999;50.940;3.998;2022-09-01T12:05:21;28.40;99.90
48946;DHT22;34999;50.940;3.998;2022-09-01T12:07:50;28.30;99.90
48946;DHT22;34999;50.940;3.998;2022-09-01T12:10:23;28.50;99.90
48946;DHT22;34999;50.940;3.998;2022-09-01T12:13:01;28.20;99.90
48946;DHT22;34999;50.940;3.998;2022-09-01T12:15:31;28.00;99.90
48946;DHT22;34999;50.940;3.998;2022-09-01T12:18:14;27.90;99.90
48946;DHT22;34999;50.940;3.998;2022-09-01T12:20:46;28.20;99.90
48946;DHT22;34999;50.940;3.998;2022-09-01T12:23:22;28.50;99.90
48946;DHT22;34999;50.940;3.998;2022-09-01T12:25:52;28.90;99.90
48946;DHT22;34999;50.940;3.998;2022-09-01T12:28:22;29.30;99.90
48946;DHT22;34999;50.940;3.998;2022-09-01T12:30:57;29.30;99.90
48946;DHT22;34999;50.940;3.998;2022-09-01T12:33:28;29.10;99.40
48946;DHT22;34999;50.940;3.998;2022-09-01T12:36:19;28.90;99.90
48946;DHT22;34999;50.940;3.998;2022-09-01T12:43:08;29.30;99.90
48946;DHT22;34999;50.940;3.998;2022-09-01T12:45:41;28.70;99.90
48946;DHT22;34999;50.940;3.998;2022-09-01T12:48:24;28.30;99.90
48946;DHT22;34999;50.940;3.998;2022-09-01T12:50:54;28.20;99.90
48946;DHT22;34999;50.940;3.998;2022-09-01T12:53:27;28.10;99.80
48946;DHT22;34999;50.940;3.998;2022-09-01T12:56:05;28.00;99.90
48946;DHT22;34999;50.940;3.998;2022-09-01T12:58:47;28.10;99.90
48946;DHT22;34999;50.940;3.998;2022-09-01T13:01:26;28.00;99.80
48946;DHT22;34999;50.940;3.998;2022-09-01T13:04:26;28.10;99.90
48946;DHT22;34999;50.940;3.998;2022-09-01T13:07:01;28.20;99.90
48946;DHT22;34999;50.940;3.998;2022-09-01T13:09:30;28.40;99.90
48946;DHT22;34999;50.940;3.998;2022-09-01T13:12:15;28.40;99.90
48946;DHT22;34999;50.940;3.998;2022-09-01T13:14:47;28.50;99.90
48946;DHT22;34999;50.940;3.998;2022-09-01T13:17:15;28.30;99.50
48946;DHT22;34999;50.940;3.998;2022-09-01T13:19:44;28.20;99.90
48946;DHT22;34999;50.940;3.998;2022-09-01T13:22:14;28.40;99.90
48946;DHT22;34999;50.940;3.998;2022-09-01T13:24:42;28.40;99.90
48946;DHT22;34999;50.940;3.998;2022-09-01T13:27:10;28.40;99.80
48946;DHT22;34999;50.940;3.998;2022-09-01T13:29:48;28.20;99.90
48946;DHT22;34999;50.940;3.998;2022-09-01T13:32:17;27.90;99.80
48946;DHT22;34999;50.940;3.998;2022-09-01T13:34:49;27.70;99.90
48946;DHT22;34999;50.940;3.998;2022-09-01T13:37:20;27.80;99.80
48946;DHT22;34999;50.940;3.998;2022-09-01T13:39:49;27.80;99.90
48946;DHT22;34999;50.940;3.998;2022-09-01T13:42:18;27.80;99.50
48946;DHT22;34999;50.940;3.998;2022-09-01T13:44:46;28.00;99.90
48946;DHT22;34999;50.940;3.998;2022-09-01T13:47:21;28.10;99.20
48946;DHT22;34999;50.940;3.998;2022-09-01T13:49:58;27.80;99.30
48946;DHT22;34999;50.940;3.998;2022-09-01T13:52:40;27.70;99.90
48946;DHT22;34999;50.940;3.998;2022-09-01T13:55:12;27.90;99.80
48946;DHT22;34999;50.940;3.998;2022-09-01T13:57:40;28.10;99.40
48946;DHT22;34999;50.940;3.998;2022-09-01T14:00:12;28.30;99.80
48946;DHT22;34999;50.940;3.998;2022-09-01T14:02:43;28.60;99.40
48946;DHT22;34999;50.940;3.998;2022-09-01T14:05:15;28.80;99.70
48946;DHT22;34999;50.940;3.998;2022-09-01T14:07:46;29.20;99.00
48946;DHT22;34999;50.940;3.998;2022-09-01T14:10:15;29.00;98.60
48946;DHT22;34999;50.940;3.998;2022-09-01T14:12:43;28.80;98.60
48946;DHT22;34999;50.940;3.998;2022-09-01T14:15:14;28.60;98.70
48946;DHT22;34999;50.940;3.998;2022-09-01T14:17:50;28.70;99.60
48946;DHT22;34999;50.940;3.998;2022-09-01T14:20:20;29.00;99.10
48946;DHT22;34999;50.940;3.998;2022-09-01T14:22:50;29.10;98.80
48946;DHT22;34999;50.940;3.998;2022-09-01T14:25:20;29.10;98.90
48946;DHT22;34999;50.940;3.998;2022-09-01T14:27:48;29.00;99.30
48946;DHT22;34999;50.940;3.998;2022-09-01T14:30:21;28.90;98.50
48946;DHT22;34999;50.940;3.998;2022-09-01T14:32:56;29.00;99.30
48946;DHT22;34999;50.940;3.998;2022-09-01T14:35:25;29.30;98.80
48946;DHT22;34999;50.940;3.998;2022-09-01T14:37:55;29.30;98.40
48946;DHT22;34999;50.940;3.998;2022-09-01T14:40:25;28.90;98.30
48946;DHT22;34999;50.940;3.998;2022-09-01T14:42:54;29.10;99.10
48946;DHT22;34999;50.940;3.998;2022-09-01T14:45:24;29.30;99.70
48946;DHT22;34999;50.940;3.998;2022-09-01T14:47:56;29.80;98.30
48946;DHT22;34999;50.940;3.998;2022-09-01T14:55:07;29.90;98.00
48946;DHT22;34999;50.940;3.998;2022-09-01T14:57:35;29.20;97.80
48946;DHT22;34999;50.940;3.998;2022-09-01T15:00:07;29.10;98.20
48946;DHT22;34999;50.940;3.998;2022-09-01T15:02:39;28.90;97.90
48946;DHT22;34999;50.940;3.998;2022-09-01T15:05:09;28.80;98.10
48946;DHT22;34999;50.940;3.998;2022-09-01T15:07:38;28.70;97.70
48946;DHT22;34999;50.940;3.998;2022-09-01T15:10:10;28.90;98.60
48946;DHT22;34999;50.940;3.998;2022-09-01T15:12:52;29.20;98.60
48946;DHT22;34999;50.940;3.998;2022-09-01T15:15:20;29.40;97.40
48946;DHT22;34999;50.940;3.998;2022-09-01T15:17:49;29.60;97.90
48946;DHT22;34999;50.940;3.998;2022-09-01T15:25:10;29.50;97.60
48946;DHT22;34999;50.940;3.998;2022-09-01T15:36:41;29.80;97.20
48946;DHT22;34999;50.940;3.998;2022-09-01T15:39:11;29.70;96.10
48946;DHT22;34999;50.940;3.998;2022-09-01T15:41:43;29.40;96.20
48946;DHT22;34999;50.940;3.998;2022-09-01T15:48:55;28.80;96.60
48946;DHT22;34999;50.940;3.998;2022-09-01T15:51:30;29.10;96.70
48946;DHT22;34999;50.940;3.998;2022-09-01T15:54:01;28.90;96.70
48946;DHT22;34999;50.940;3.998;2022-09-01T16:05:28;28.60;96.20
48946;DHT22;34999;50.940;3.998;2022-09-01T16:17:21;28.40;96.90
48946;DHT22;34999;50.940;3.998;2022-09-01T16:24:32;28.10;97.10
48946;DHT22;34999;50.940;3.998;2022-09-01T16:31:53;27.70;95.80
48946;DHT22;34999;50.940;3.998;2022-09-01T16:34:22;27.80;96.20
48946;DHT22;34999;50.940;3.998;2022-09-01T16:46:18;28.20;96.10
48946;DHT22;34999;50.940;3.998;2022-09-01T16:53:38;27.70;95.80
48946;DHT22;34999;50.940;3.998;2022-09-01T16:56:10;27.60;96.20
48946;DHT22;34999;50.940;3.998;2022-09-01T16:58:45;27.50;95.60
48946;DHT22;34999;50.940;3.998;2022-09-01T17:10:36;27.10;96.10
48946;DHT22;34999;50.940;3.998;2022-09-01T17:22:13;27.10;95.90
48946;DHT22;34999;50.940;3.998;2022-09-01T17:34:27;26.20;96.30
48946;DHT22;34999;50.940;3.998;2022-09-01T17:46:18;25.70;97.50
48946;DHT22;34999;50.940;3.998;2022-09-01T17:53:35;25.30;97.30
48946;DHT22;34999;50.940;3.998;2022-09-01T18:00:30;24.90;98.70
48946;DHT22;34999;50.940;3.998;2022-09-01T18:07:50;24.60;99.10
48946;DHT22;34999;50.940;3.998;2022-09-01T18:10:26;24.30;99.80
48946;DHT22;34999;50.940;3.998;2022-09-01T18:13:00;24.10;99.90
48946;DHT22;34999;50.940;3.998;2022-09-01T18:20:17;23.80;99.90
48946;DHT22;34999;50.940;3.998;2022-09-01T18:31:53;23.30;99.90
48946;DHT22;34999;50.940;3.998;2022-09-01T18:34:32;23.00;99.90
48946;DHT22;34999;50.940;3.998;2022-09-01T18:40:16;22.70;99.90
48946;DHT22;34999;50.940;3.998;2022-09-01T18:42:50;22.50;99.90
48946;DHT22;34999;50.940;3.998;2022-09-01T18:45:29;22.40;99.90
48946;DHT22;34999;50.940;3.998;2022-09-01T18:48:07;22.20;99.90
48946;DHT22;34999;50.940;3.998;2022-09-01T18:50:43;22.10;99.90
48946;DHT22;34999;50.940;3.998;2022-09-01T18:53:24;22.00;99.90
48946;DHT22;34999;50.940;3.998;2022-09-01T18:55:58;21.90;99.90
48946;DHT22;34999;50.940;3.998;2022-09-01T18:58:52;21.70;99.90
48946;DHT22;34999;50.940;3.998;2022-09-01T19:01:30;21.60;99.90
48946;DHT22;34999;50.940;3.998;2022-09-01T19:04:08;21.50;99.90
48946;DHT22;34999;50.940;3.998;2022-09-01T19:06:51;21.40;99.90
48946;DHT22;34999;50.940;3.998;2022-09-01T19:09:30;21.30;99.90